Medea, Algeria
Current Conditions -  °F | °C
As of 3:00 AM on Tuesday 21 Oct 2014 (Local Time) from DAAG Reporting Station
Clear Clear  
Wind Chill: 55°   Ceiling: Unl
Heat Index: 55°   Visibility: 6mi
Dew Point: 52°   Wind: 0mph
Humidity: 88%   Direction: NA
Pressure: 30.09"   Gusts: NA
Location:  36.26°N, 2.75°E
Report Text: DAAG 210200Z 00000KT CAVOK 13/11 Q1019
Loading
Personal Weather Stations






























Interactive Weather Map
Tropical Storm Tracking
New forecast layout! Learn more

10-Day Weather Forecast

Advertisements
Track Severe Weather on mobile